< < Back
Terminal Aerodrome Forecast


Current Version              Previous Versions:   1  2  3  4  5  6  7  8  9  

Terminal Aerodrome Forecast

651
FTUS44 KBMX 281137
TAFTCL
TAF
KTCL 281137Z 2812/2912 06004KT P6SM SCT250
     FM281600 09008KT P6SM SCT050
     FM290100 06003KT P6SM SCT250=

Latest METAR

183
SAUS70 KWBC 281200 RRI
MTRTCL
METAR KTCL 281153Z 00000KT 9SM CLR 23/22 A3009 RMK AO2 SLP185 T02280222
10233 20211 53018


USA.gov is the U.S. government's official web portal to all federal, state and local government web resources and services.